createdAt,value
2018-09-23T00:02:37.280Z,60.78
2018-09-23T00:07:20.420Z,60.45
2018-09-23T00:12:03.349Z,59.70
2018-09-23T00:16:46.467Z,61.19
2018-09-23T00:21:29.371Z,60.62
2018-09-23T00:26:13.403Z,60.50
2018-09-23T00:30:56.326Z,60.45
2018-09-23T00:35:39.431Z,60.54
2018-09-23T00:40:22.446Z,62.47
2018-09-23T00:45:05.495Z,61.75
2018-09-23T00:49:48.627Z,61.19
2018-09-23T00:54:32.075Z,60.99
2018-09-23T00:59:15.209Z,60.51
2018-09-23T01:03:58.113Z,61.84
2018-09-23T01:08:41.101Z,61.92
2018-09-23T01:13:24.073Z,62.14
2018-09-23T01:18:08.237Z,63.54
2018-09-23T01:22:51.402Z,62.52
2018-09-23T01:27:34.450Z,63.23
2018-09-23T01:32:17.323Z,62.43
2018-09-23T01:37:04.331Z,63.14
2018-09-23T01:41:47.199Z,64.12
2018-09-23T01:46:31.078Z,64.10
2018-09-23T01:51:13.977Z,64.71
2018-09-23T01:56:00.194Z,63.50
2018-09-23T02:00:43.062Z,63.66
2018-09-23T02:05:27.012Z,64.02
2018-09-23T02:10:09.881Z,64.95
2018-09-23T02:14:52.803Z,65.30
2018-09-23T02:19:35.971Z,65.84
2018-09-23T02:24:18.859Z,65.11
2018-09-23T02:29:02.982Z,65.98
2018-09-23T02:33:46.250Z,65.77
2018-09-23T02:38:30.230Z,65.23
2018-09-23T02:43:13.148Z,65.82
2018-09-23T02:47:58.103Z,65.29
2018-09-23T02:52:41.000Z,65.55
2018-09-23T02:57:25.082Z,66.07
2018-09-23T03:02:07.985Z,65.67
2018-09-23T03:06:51.935Z,65.62
2018-09-23T03:11:34.863Z,65.97
2018-09-23T03:16:18.967Z,66.09
2018-09-23T03:21:01.901Z,67.45
2018-09-23T03:25:47.147Z,65.84
2018-09-23T03:30:30.124Z,67.13
2018-09-23T03:35:14.134Z,67.32
2018-09-23T03:39:57.070Z,66.91
2018-09-23T03:44:39.993Z,66.27
2018-09-23T03:49:22.980Z,67.53
2018-09-23T03:54:05.908Z,67.60
2018-09-23T03:58:49.052Z,67.71
2018-09-23T04:05:02.636Z,67.32
2018-09-23T04:09:45.578Z,68.90
2018-09-23T04:14:28.461Z,68.07
2018-09-23T04:19:11.393Z,69.69
2018-09-23T04:23:54.275Z,68.96
2018-09-23T04:28:41.807Z,66.83
2018-09-23T04:33:24.708Z,65.86
2018-09-23T04:38:07.800Z,66.39
2018-09-23T04:42:50.813Z,65.22
2018-09-23T04:47:38.676Z,64.60
2018-09-23T04:52:22.247Z,62.41
2018-09-23T04:57:05.257Z,62.91
2018-09-23T05:01:48.132Z,61.79
2018-09-23T05:06:34.584Z,61.24
2018-09-23T05:11:17.616Z,61.24
2018-09-23T05:16:01.587Z,62.05
2018-09-23T05:20:44.867Z,60.61
2018-09-23T05:25:30.140Z,59.33
2018-09-23T05:30:13.640Z,60.09
2018-09-23T05:35:01.640Z,59.34
2018-09-23T05:39:44.551Z,58.65
2018-09-23T05:44:34.385Z,58.86
2018-09-23T05:49:32.279Z,58.18
2018-09-23T05:54:15.166Z,59.03
2018-09-23T05:58:58.255Z,59.34
2018-09-23T06:03:41.139Z,59.15
2018-09-23T06:08:24.027Z,60.04
2018-09-23T06:13:06.938Z,58.89
2018-09-23T06:17:50.818Z,58.54
2018-09-23T06:22:33.691Z,58.30
2018-09-23T06:27:16.640Z,57.52
2018-09-23T06:32:00.385Z,58.23
2018-09-23T06:36:45.483Z,58.15
2018-09-23T06:41:28.411Z,55.97
2018-09-23T06:46:12.658Z,56.54
2018-09-23T06:50:55.630Z,56.37
2018-09-23T06:55:42.364Z,57.50
2018-09-23T07:00:25.378Z,57.07
2018-09-23T07:05:09.110Z,57.50
2018-09-23T07:09:52.030Z,57.20
2018-09-23T07:14:35.168Z,57.44
2018-09-23T07:19:18.086Z,56.50
2018-09-23T07:24:01.169Z,56.44
2018-09-23T07:28:44.012Z,55.23
2018-09-23T07:33:26.978Z,55.77
2018-09-23T07:38:11.271Z,54.41
2018-09-23T07:42:54.288Z,54.42
2018-09-23T07:47:37.362Z,54.69
2018-09-23T07:52:20.251Z,55.25
2018-09-23T07:57:04.159Z,53.13
2018-09-23T08:01:47.062Z,53.92
2018-09-23T08:06:31.500Z,54.56
2018-09-23T08:11:14.681Z,50.96
2018-09-23T08:15:57.798Z,52.35
2018-09-23T08:20:40.777Z,53.57
2018-09-23T08:25:24.824Z,52.10
2018-09-23T08:30:07.787Z,52.40
2018-09-23T08:34:50.851Z,52.44
2018-09-23T08:39:33.726Z,53.37
2018-09-23T08:44:16.815Z,50.33
2018-09-23T08:48:59.762Z,50.88
2018-09-23T08:53:42.654Z,52.04
2018-09-23T08:58:25.753Z,51.73
2018-09-23T09:03:08.739Z,49.62
2018-09-23T09:07:52.771Z,48.45
2018-09-23T09:12:35.661Z,50.14
2018-09-23T09:17:24.580Z,49.08
2018-09-23T09:22:07.430Z,48.00
2018-09-23T09:26:51.044Z,49.35
2018-09-23T09:31:35.271Z,49.18
2018-09-23T09:36:25.004Z,50.01
2018-09-23T09:41:08.387Z,49.76
2018-09-23T09:45:52.500Z,50.23
2018-09-23T09:50:35.382Z,49.92
2018-09-23T09:55:19.621Z,50.17
2018-09-23T10:00:02.531Z,49.77
2018-09-23T10:04:45.583Z,49.16
2018-09-23T10:09:29.565Z,48.85
2018-09-23T10:14:12.666Z,49.19
2018-09-23T10:19:01.201Z,48.66
2018-09-23T10:23:56.435Z,46.51
2018-09-23T10:28:39.249Z,48.29
2018-09-23T10:33:22.295Z,48.14
2018-09-23T10:38:06.235Z,48.35
2018-09-23T10:42:49.099Z,48.69
2018-09-23T10:47:32.626Z,48.66
2018-09-23T10:52:15.549Z,49.59
2018-09-23T10:56:58.562Z,49.02
2018-09-23T11:01:41.482Z,50.60
2018-09-23T11:06:26.629Z,49.05
2018-09-23T11:11:09.511Z,48.12
2018-09-23T11:15:52.609Z,48.55
2018-09-23T11:20:35.542Z,48.18
2018-09-23T11:25:20.075Z,47.35
2018-09-23T11:31:32.565Z,47.48
2018-09-23T11:36:15.562Z,47.40
2018-09-23T11:40:58.452Z,46.57
2018-09-23T11:45:41.562Z,46.17
2018-09-23T11:50:26.885Z,45.67
2018-09-23T11:55:12.376Z,46.04
2018-09-23T11:59:55.338Z,46.67
2018-09-23T12:04:38.520Z,46.89
2018-09-23T12:09:21.418Z,48.64
2018-09-23T12:14:04.623Z,47.51
2018-09-23T12:18:47.651Z,49.19
2018-09-23T12:23:30.579Z,49.68
2018-09-23T12:37:12.317Z,53.78
2018-09-23T12:41:55.181Z,55.38
2018-09-23T12:46:39.075Z,57.68
2018-09-23T12:51:21.964Z,58.50
2018-09-23T12:56:05.222Z,59.90
2018-09-23T13:00:48.082Z,60.46
2018-09-23T13:05:33.186Z,60.80
2018-09-23T13:10:16.054Z,60.44
2018-09-23T13:14:59.968Z,61.02
2018-09-23T13:19:42.843Z,61.64
2018-09-23T13:24:29.070Z,60.63
2018-09-23T13:29:11.967Z,62.12
2018-09-23T13:33:57.846Z,62.07
2018-09-23T13:38:40.778Z,61.89
2018-09-23T13:43:24.011Z,62.39
2018-09-23T13:48:07.180Z,62.14
2018-09-23T13:52:50.110Z,61.42
2018-09-23T13:57:36.618Z,60.74
2018-09-23T14:02:19.584Z,61.67
2018-09-23T14:07:02.846Z,63.00
2018-09-23T14:11:45.766Z,63.41
2018-09-23T14:16:28.702Z,63.83
2018-09-23T14:21:11.656Z,64.90
2018-09-23T14:25:55.087Z,64.21
2018-09-23T14:30:38.004Z,64.19
2018-09-23T14:35:22.939Z,65.53
2018-09-23T14:40:05.904Z,66.39
2018-09-23T14:44:48.807Z,66.79
2018-09-23T14:49:31.660Z,67.32
2018-09-23T14:54:14.729Z,68.10
2018-09-23T14:58:57.797Z,68.31
2018-09-23T15:03:40.871Z,69.84
2018-09-23T15:08:23.768Z,69.28
2018-09-23T15:13:06.966Z,69.80
2018-09-23T15:17:49.806Z,68.50
2018-09-23T15:22:32.677Z,68.09
2018-09-23T15:27:15.818Z,70.70
2018-09-23T15:31:59.617Z,68.31
2018-09-23T15:36:42.565Z,68.37
2018-09-23T15:41:30.636Z,68.14
2018-09-23T15:46:13.742Z,68.69
2018-09-23T15:50:56.641Z,68.26
2018-09-23T15:55:40.750Z,70.22
2018-09-23T16:00:23.751Z,69.61
2018-09-23T16:05:08.923Z,70.04
2018-09-23T16:09:51.865Z,69.58
2018-09-23T16:14:35.798Z,69.71
2018-09-23T16:19:18.953Z,69.72
2018-09-23T16:24:02.140Z,69.71
2018-09-23T16:28:45.046Z,70.90
2018-09-23T16:33:28.993Z,71.00
2018-09-23T16:38:11.888Z,70.42
2018-09-23T16:42:54.972Z,73.94
2018-09-23T16:47:37.828Z,72.00
2018-09-23T16:52:20.757Z,71.61
2018-09-23T16:57:03.888Z,71.11
2018-09-23T17:01:47.843Z,71.45
2018-09-23T17:06:31.876Z,72.66
2018-09-23T17:11:16.507Z,71.21
2018-09-23T17:15:59.595Z,71.63
2018-09-23T17:20:42.531Z,72.37
2018-09-23T17:25:27.365Z,72.73
2018-09-23T17:30:15.078Z,72.29
2018-09-23T17:34:59.062Z,72.13
2018-09-23T17:39:42.028Z,72.38
2018-09-23T17:44:25.355Z,72.47
2018-09-23T17:49:08.415Z,72.08
2018-09-23T17:53:56.263Z,72.69
2018-09-23T17:58:39.288Z,73.36
2018-09-23T18:03:27.257Z,73.82
2018-09-23T18:08:10.148Z,72.40
2018-09-23T18:12:54.107Z,72.83
2018-09-23T18:17:37.419Z,72.76
2018-09-23T18:27:13.955Z,71.58
2018-09-23T18:31:57.406Z,72.56
2018-09-23T18:36:40.539Z,73.21
2018-09-23T18:41:23.494Z,72.06
2018-09-23T18:46:06.582Z,72.55
2018-09-23T18:50:49.442Z,73.64
2018-09-23T18:55:40.162Z,73.42
2018-09-23T19:00:23.056Z,73.37
2018-09-23T19:05:06.044Z,74.71
2018-09-23T19:09:48.961Z,74.28
2018-09-23T19:14:32.078Z,74.85
2018-09-23T19:19:14.947Z,76.10
2018-09-23T19:24:01.447Z,75.37
2018-09-23T19:28:44.315Z,76.19
2018-09-23T19:33:27.429Z,74.78
2018-09-23T19:38:10.277Z,73.46
2018-09-23T19:42:53.171Z,74.48
2018-09-23T19:47:36.138Z,74.66
2018-09-23T19:52:19.089Z,75.00
2018-09-23T19:57:02.033Z,75.15
2018-09-23T20:01:44.955Z,74.95
2018-09-23T20:06:28.968Z,73.70
2018-09-23T20:11:11.785Z,73.95
2018-09-23T20:15:54.867Z,74.75
2018-09-23T20:20:37.769Z,73.96
2018-09-23T20:25:22.759Z,75.43
2018-09-23T20:30:06.362Z,75.60
2018-09-23T20:34:49.567Z,75.59
2018-09-23T20:39:32.482Z,75.83
2018-09-23T20:44:16.551Z,75.03
2018-09-23T20:48:59.430Z,74.32
2018-09-23T20:53:42.598Z,76.26
2018-09-23T20:58:25.525Z,75.90
2018-09-23T21:03:08.641Z,75.90
2018-09-23T21:07:51.552Z,74.52
2018-09-23T21:12:34.771Z,75.55
2018-09-23T21:17:17.668Z,78.08
2018-09-23T21:22:00.526Z,79.29
2018-09-23T21:26:43.508Z,80.28
2018-09-23T21:31:26.445Z,79.12
2018-09-23T21:36:10.565Z,78.97
2018-09-23T21:40:53.465Z,79.96
2018-09-23T21:45:37.346Z,79.11
2018-09-23T21:50:20.263Z,78.96
2018-09-23T21:55:05.157Z,80.42
2018-09-23T21:59:48.035Z,80.13
2018-09-23T22:04:30.938Z,79.89
2018-09-23T22:09:13.840Z,80.63
2018-09-23T22:13:58.006Z,79.66
2018-09-23T22:18:40.910Z,79.78
2018-09-23T22:23:24.006Z,79.14
2018-09-23T22:28:06.873Z,79.65
2018-09-23T22:32:49.763Z,79.71
2018-09-23T22:37:40.817Z,78.67
2018-09-23T22:42:24.706Z,80.75
2018-09-23T22:47:07.566Z,80.46
2018-09-23T22:51:50.439Z,80.22
2018-09-23T22:56:33.286Z,79.91
2018-09-23T23:01:16.162Z,79.88
2018-09-23T23:05:59.139Z,79.28
2018-09-23T23:10:42.072Z,79.44
2018-09-23T23:15:26.938Z,81.55
2018-09-23T23:20:09.794Z,79.90
2018-09-23T23:24:52.956Z,79.90
2018-09-23T23:29:35.815Z,80.47
2018-09-23T23:34:18.760Z,80.51
2018-09-23T23:39:01.611Z,81.51
2018-09-23T23:43:44.744Z,80.18
2018-09-23T23:48:27.562Z,80.41
2018-09-23T23:53:10.591Z,81.18
2018-09-23T23:57:53.490Z,80.89
